sensor_id;sensor_type;location;lat;lon;timestamp;P1;durP1;ratioP1;P2;durP2;ratioP2
26060;SDS011;36331;51.378;0.018;2023-03-11T00:01:16;9.50;;;6.47;;
26060;SDS011;36331;51.378;0.018;2023-03-11T00:03:45;16.00;;;7.68;;
26060;SDS011;36331;51.378;0.018;2023-03-11T00:06:15;15.13;;;7.85;;
26060;SDS011;36331;51.378;0.018;2023-03-11T00:08:44;17.98;;;8.80;;
26060;SDS011;36331;51.378;0.018;2023-03-11T00:11:13;16.60;;;9.20;;
26060;SDS011;36331;51.378;0.018;2023-03-11T00:13:43;13.63;;;7.93;;
26060;SDS011;36331;51.378;0.018;2023-03-11T00:16:12;11.45;;;6.45;;
26060;SDS011;36331;51.378;0.018;2023-03-11T00:18:41;12.45;;;5.68;;
26060;SDS011;36331;51.378;0.018;2023-03-11T00:21:13;8.45;;;4.32;;
26060;SDS011;36331;51.378;0.018;2023-03-11T00:23:44;9.45;;;5.13;;
26060;SDS011;36331;51.378;0.018;2023-03-11T00:26:13;12.52;;;5.53;;
26060;SDS011;36331;51.378;0.018;2023-03-11T00:28:44;6.88;;;4.85;;
26060;SDS011;36331;51.378;0.018;2023-03-11T00:33:43;6.55;;;4.55;;
26060;SDS011;36331;51.378;0.018;2023-03-11T00:36:17;8.13;;;4.95;;
26060;SDS011;36331;51.378;0.018;2023-03-11T00:38:48;8.25;;;5.47;;
26060;SDS011;36331;51.378;0.018;2023-03-11T00:41:18;10.60;;;6.35;;
26060;SDS011;36331;51.378;0.018;2023-03-11T00:43:50;10.55;;;5.75;;
26060;SDS011;36331;51.378;0.018;2023-03-11T00:46:19;8.03;;;4.67;;
26060;SDS011;36331;51.378;0.018;2023-03-11T00:48:49;9.77;;;4.82;;
26060;SDS011;36331;51.378;0.018;2023-03-11T00:51:18;9.70;;;4.93;;
26060;SDS011;36331;51.378;0.018;2023-03-11T00:53:47;9.82;;;5.13;;
26060;SDS011;36331;51.378;0.018;2023-03-11T00:56:17;11.52;;;5.82;;
26060;SDS011;36331;51.378;0.018;2023-03-11T00:58:46;11.85;;;5.40;;
26060;SDS011;36331;51.378;0.018;2023-03-11T01:01:17;10.48;;;5.47;;
26060;SDS011;36331;51.378;0.018;2023-03-11T01:03:47;9.82;;;5.20;;
26060;SDS011;36331;51.378;0.018;2023-03-11T01:06:16;10.18;;;5.40;;
26060;SDS011;36331;51.378;0.018;2023-03-11T01:08:45;12.45;;;6.03;;
26060;SDS011;36331;51.378;0.018;2023-03-11T01:11:15;13.00;;;4.95;;
26060;SDS011;36331;51.378;0.018;2023-03-11T01:13:45;23.25;;;7.32;;
26060;SDS011;36331;51.378;0.018;2023-03-11T01:16:14;8.55;;;4.88;;
26060;SDS011;36331;51.378;0.018;2023-03-11T01:18:45;7.68;;;4.40;;
26060;SDS011;36331;51.378;0.018;2023-03-11T01:21:15;10.82;;;5.80;;
26060;SDS011;36331;51.378;0.018;2023-03-11T01:23:44;9.02;;;5.13;;
26060;SDS011;36331;51.378;0.018;2023-03-11T01:26:13;11.15;;;4.55;;
26060;SDS011;36331;51.378;0.018;2023-03-11T01:28:42;7.57;;;5.07;;
26060;SDS011;36331;51.378;0.018;2023-03-11T01:31:11;8.05;;;5.00;;
26060;SDS011;36331;51.378;0.018;2023-03-11T01:33:41;9.20;;;5.22;;
26060;SDS011;36331;51.378;0.018;2023-03-11T01:36:12;11.40;;;6.15;;
26060;SDS011;36331;51.378;0.018;2023-03-11T01:38:42;10.47;;;5.17;;
26060;SDS011;36331;51.378;0.018;2023-03-11T01:41:11;8.02;;;4.97;;
26060;SDS011;36331;51.378;0.018;2023-03-11T01:43:47;6.00;;;4.22;;
26060;SDS011;36331;51.378;0.018;2023-03-11T01:46:21;13.95;;;5.85;;
26060;SDS011;36331;51.378;0.018;2023-03-11T01:48:51;13.65;;;5.32;;
26060;SDS011;36331;51.378;0.018;2023-03-11T01:51:24;8.77;;;5.05;;
26060;SDS011;36331;51.378;0.018;2023-03-11T01:53:56;8.07;;;5.70;;
26060;SDS011;36331;51.378;0.018;2023-03-11T01:56:27;11.02;;;5.03;;
26060;SDS011;36331;51.378;0.018;2023-03-11T01:58:57;12.38;;;5.72;;
26060;SDS011;36331;51.378;0.018;2023-03-11T02:01:28;9.15;;;5.47;;
26060;SDS011;36331;51.378;0.018;2023-03-11T02:04:00;9.10;;;5.38;;
26060;SDS011;36331;51.378;0.018;2023-03-11T02:06:32;10.23;;;4.68;;
26060;SDS011;36331;51.378;0.018;2023-03-11T02:09:01;11.02;;;6.55;;
26060;SDS011;36331;51.378;0.018;2023-03-11T02:11:31;10.45;;;5.07;;
26060;SDS011;36331;51.378;0.018;2023-03-11T02:14:02;7.40;;;4.90;;
26060;SDS011;36331;51.378;0.018;2023-03-11T02:16:32;12.35;;;4.90;;
26060;SDS011;36331;51.378;0.018;2023-03-11T02:19:03;7.55;;;4.90;;
26060;SDS011;36331;51.378;0.018;2023-03-11T02:21:37;8.15;;;5.50;;
26060;SDS011;36331;51.378;0.018;2023-03-11T02:24:10;9.20;;;6.18;;
26060;SDS011;36331;51.378;0.018;2023-03-11T02:26:47;9.18;;;4.93;;
26060;SDS011;36331;51.378;0.018;2023-03-11T02:29:17;9.52;;;5.30;;
26060;SDS011;36331;51.378;0.018;2023-03-11T02:31:47;9.25;;;4.60;;
26060;SDS011;36331;51.378;0.018;2023-03-11T02:34:20;9.48;;;4.80;;
26060;SDS011;36331;51.378;0.018;2023-03-11T02:36:51;9.68;;;5.70;;
26060;SDS011;36331;51.378;0.018;2023-03-11T02:42:14;6.47;;;4.32;;
26060;SDS011;36331;51.378;0.018;2023-03-11T02:44:45;9.70;;;4.50;;
26060;SDS011;36331;51.378;0.018;2023-03-11T02:47:15;10.32;;;5.25;;
26060;SDS011;36331;51.378;0.018;2023-03-11T02:49:44;8.10;;;4.57;;
26060;SDS011;36331;51.378;0.018;2023-03-11T02:52:14;6.93;;;4.07;;
26060;SDS011;36331;51.378;0.018;2023-03-11T02:54:43;6.05;;;4.15;;
26060;SDS011;36331;51.378;0.018;2023-03-11T02:57:13;9.65;;;5.05;;
26060;SDS011;36331;51.378;0.018;2023-03-11T02:59:42;9.02;;;5.03;;
26060;SDS011;36331;51.378;0.018;2023-03-11T03:02:14;5.45;;;3.50;;
26060;SDS011;36331;51.378;0.018;2023-03-11T03:04:43;6.65;;;4.35;;
26060;SDS011;36331;51.378;0.018;2023-03-11T03:07:13;7.00;;;4.10;;
26060;SDS011;36331;51.378;0.018;2023-03-11T03:09:42;10.13;;;4.78;;
26060;SDS011;36331;51.378;0.018;2023-03-11T03:12:11;8.75;;;3.78;;
26060;SDS011;36331;51.378;0.018;2023-03-11T03:14:42;6.85;;;4.47;;
26060;SDS011;36331;51.378;0.018;2023-03-11T03:17:11;7.15;;;3.92;;
26060;SDS011;36331;51.378;0.018;2023-03-11T03:19:40;6.45;;;3.83;;
26060;SDS011;36331;51.378;0.018;2023-03-11T03:22:11;6.03;;;3.53;;
26060;SDS011;36331;51.378;0.018;2023-03-11T03:24:41;9.98;;;4.32;;
26060;SDS011;36331;51.378;0.018;2023-03-11T03:27:10;10.52;;;4.82;;
26060;SDS011;36331;51.378;0.018;2023-03-11T03:29:40;6.95;;;4.03;;
26060;SDS011;36331;51.378;0.018;2023-03-11T03:32:11;6.22;;;4.63;;
26060;SDS011;36331;51.378;0.018;2023-03-11T03:34:40;14.45;;;4.85;;
26060;SDS011;36331;51.378;0.018;2023-03-11T03:37:09;11.48;;;3.95;;
26060;SDS011;36331;51.378;0.018;2023-03-11T03:39:39;10.40;;;4.78;;
26060;SDS011;36331;51.378;0.018;2023-03-11T03:44:40;7.20;;;4.40;;
26060;SDS011;36331;51.378;0.018;2023-03-11T03:47:10;12.55;;;4.05;;
26060;SDS011;36331;51.378;0.018;2023-03-11T03:49:40;8.07;;;3.77;;
26060;SDS011;36331;51.378;0.018;2023-03-11T03:52:09;6.22;;;4.10;;
26060;SDS011;36331;51.378;0.018;2023-03-11T03:54:39;6.50;;;4.10;;
26060;SDS011;36331;51.378;0.018;2023-03-11T03:57:09;9.55;;;5.03;;
26060;SDS011;36331;51.378;0.018;2023-03-11T03:59:43;10.43;;;4.57;;
26060;SDS011;36331;51.378;0.018;2023-03-11T04:02:14;8.82;;;4.55;;
26060;SDS011;36331;51.378;0.018;2023-03-11T04:04:44;6.13;;;3.20;;
26060;SDS011;36331;51.378;0.018;2023-03-11T04:07:13;6.68;;;4.53;;
26060;SDS011;36331;51.378;0.018;2023-03-11T04:09:43;6.80;;;3.70;;
26060;SDS011;36331;51.378;0.018;2023-03-11T04:12:14;11.45;;;4.38;;
26060;SDS011;36331;51.378;0.018;2023-03-11T04:14:45;8.57;;;4.07;;
26060;SDS011;36331;51.378;0.018;2023-03-11T04:17:16;9.27;;;3.85;;
26060;SDS011;36331;51.378;0.018;2023-03-11T04:19:46;9.25;;;4.15;;
26060;SDS011;36331;51.378;0.018;2023-03-11T04:22:15;10.75;;;4.50;;
26060;SDS011;36331;51.378;0.018;2023-03-11T04:24:45;8.55;;;3.42;;
26060;SDS011;36331;51.378;0.018;2023-03-11T04:27:14;6.93;;;3.22;;
26060;SDS011;36331;51.378;0.018;2023-03-11T04:29:44;7.25;;;3.70;;
26060;SDS011;36331;51.378;0.018;2023-03-11T04:32:13;8.25;;;3.25;;
26060;SDS011;36331;51.378;0.018;2023-03-11T04:34:45;5.30;;;3.45;;
26060;SDS011;36331;51.378;0.018;2023-03-11T04:37:14;6.18;;;3.58;;
26060;SDS011;36331;51.378;0.018;2023-03-11T04:39:44;5.75;;;3.03;;
26060;SDS011;36331;51.378;0.018;2023-03-11T04:42:13;6.28;;;3.13;;
26060;SDS011;36331;51.378;0.018;2023-03-11T04:44:43;7.28;;;3.20;;
26060;SDS011;36331;51.378;0.018;2023-03-11T04:47:12;7.50;;;4.68;;
26060;SDS011;36331;51.378;0.018;2023-03-11T04:49:41;5.78;;;3.60;;
26060;SDS011;36331;51.378;0.018;2023-03-11T04:52:13;6.47;;;3.03;;
26060;SDS011;36331;51.378;0.018;2023-03-11T04:54:42;7.30;;;2.67;;
26060;SDS011;36331;51.378;0.018;2023-03-11T04:57:12;5.15;;;2.80;;
26060;SDS011;36331;51.378;0.018;2023-03-11T04:59:46;8.05;;;4.07;;
26060;SDS011;36331;51.378;0.018;2023-03-11T05:02:16;5.00;;;2.65;;
26060;SDS011;36331;51.378;0.018;2023-03-11T05:04:52;6.90;;;3.65;;
26060;SDS011;36331;51.378;0.018;2023-03-11T05:07:23;8.07;;;2.97;;
26060;SDS011;36331;51.378;0.018;2023-03-11T05:12:22;4.63;;;3.38;;
26060;SDS011;36331;51.378;0.018;2023-03-11T05:14:53;5.80;;;3.28;;
26060;SDS011;36331;51.378;0.018;2023-03-11T05:17:22;5.13;;;2.10;;
26060;SDS011;36331;51.378;0.018;2023-03-11T05:19:52;4.38;;;2.80;;
26060;SDS011;36331;51.378;0.018;2023-03-11T05:22:28;4.28;;;2.15;;
26060;SDS011;36331;51.378;0.018;2023-03-11T05:24:57;5.50;;;2.83;;
26060;SDS011;36331;51.378;0.018;2023-03-11T05:27:27;4.60;;;2.65;;
26060;SDS011;36331;51.378;0.018;2023-03-11T05:29:57;4.57;;;2.95;;
26060;SDS011;36331;51.378;0.018;2023-03-11T05:32:29;3.85;;;2.88;;
26060;SDS011;36331;51.378;0.018;2023-03-11T05:34:58;5.05;;;2.40;;
26060;SDS011;36331;51.378;0.018;2023-03-11T05:37:30;3.65;;;2.22;;
26060;SDS011;36331;51.378;0.018;2023-03-11T05:40:01;3.92;;;1.98;;
26060;SDS011;36331;51.378;0.018;2023-03-11T05:42:35;4.47;;;2.20;;
26060;SDS011;36331;51.378;0.018;2023-03-11T05:45:05;3.00;;;2.00;;
26060;SDS011;36331;51.378;0.018;2023-03-11T05:47:35;10.10;;;3.15;;
26060;SDS011;36331;51.378;0.018;2023-03-11T05:50:05;3.25;;;1.92;;
26060;SDS011;36331;51.378;0.018;2023-03-11T05:52:36;4.03;;;1.75;;
26060;SDS011;36331;51.378;0.018;2023-03-11T05:55:06;4.57;;;1.88;;
26060;SDS011;36331;51.378;0.018;2023-03-11T05:57:39;5.75;;;1.98;;
26060;SDS011;36331;51.378;0.018;2023-03-11T06:00:08;4.82;;;2.42;;
26060;SDS011;36331;51.378;0.018;2023-03-11T06:02:46;3.90;;;1.90;;
26060;SDS011;36331;51.378;0.018;2023-03-11T06:05:17;1.85;;;1.67;;
26060;SDS011;36331;51.378;0.018;2023-03-11T06:07:50;3.50;;;1.83;;
26060;SDS011;36331;51.378;0.018;2023-03-11T06:10:21;2.22;;;1.75;;
26060;SDS011;36331;51.378;0.018;2023-03-11T06:12:50;2.35;;;1.50;;
26060;SDS011;36331;51.378;0.018;2023-03-11T06:15:42;5.13;;;2.15;;
26060;SDS011;36331;51.378;0.018;2023-03-11T06:18:11;4.47;;;2.05;;
26060;SDS011;36331;51.378;0.018;2023-03-11T06:20:42;3.83;;;2.10;;
26060;SDS011;36331;51.378;0.018;2023-03-11T06:23:12;3.67;;;1.50;;
26060;SDS011;36331;51.378;0.018;2023-03-11T06:25:41;7.53;;;3.40;;
26060;SDS011;36331;51.378;0.018;2023-03-11T06:28:10;2.58;;;1.63;;
26060;SDS011;36331;51.378;0.018;2023-03-11T06:30:42;6.75;;;1.65;;
26060;SDS011;36331;51.378;0.018;2023-03-11T06:33:15;1.98;;;1.58;;
26060;SDS011;36331;51.378;0.018;2023-03-11T06:35:54;3.05;;;1.83;;
26060;SDS011;36331;51.378;0.018;2023-03-11T06:38:24;5.25;;;1.85;;
26060;SDS011;36331;51.378;0.018;2023-03-11T06:40:57;5.85;;;2.03;;
26060;SDS011;36331;51.378;0.018;2023-03-11T06:43:28;2.65;;;1.77;;
26060;SDS011;36331;51.378;0.018;2023-03-11T06:45:59;5.13;;;1.85;;
26060;SDS011;36331;51.378;0.018;2023-03-11T06:48:28;2.72;;;2.10;;
26060;SDS011;36331;51.378;0.018;2023-03-11T06:50:58;8.23;;;3.33;;
26060;SDS011;36331;51.378;0.018;2023-03-11T06:53:31;4.03;;;2.20;;
26060;SDS011;36331;51.378;0.018;2023-03-11T06:56:01;3.85;;;2.58;;
26060;SDS011;36331;51.378;0.018;2023-03-11T06:58:36;4.25;;;1.75;;
26060;SDS011;36331;51.378;0.018;2023-03-11T07:01:07;3.92;;;1.85;;
26060;SDS011;36331;51.378;0.018;2023-03-11T07:03:38;3.33;;;2.13;;
26060;SDS011;36331;51.378;0.018;2023-03-11T07:06:10;7.00;;;3.20;;
26060;SDS011;36331;51.378;0.018;2023-03-11T07:08:42;3.80;;;2.45;;
26060;SDS011;36331;51.378;0.018;2023-03-11T07:11:12;4.27;;;2.60;;
26060;SDS011;36331;51.378;0.018;2023-03-11T07:13:42;6.95;;;2.40;;
26060;SDS011;36331;51.378;0.018;2023-03-11T07:16:13;10.65;;;4.45;;
26060;SDS011;36331;51.378;0.018;2023-03-11T07:18:43;8.83;;;2.37;;
26060;SDS011;36331;51.378;0.018;2023-03-11T07:21:13;4.22;;;2.65;;
26060;SDS011;36331;51.378;0.018;2023-03-11T07:23:44;6.97;;;2.70;;
26060;SDS011;36331;51.378;0.018;2023-03-11T07:26:15;4.95;;;2.72;;
26060;SDS011;36331;51.378;0.018;2023-03-11T07:28:45;3.30;;;2.33;;
26060;SDS011;36331;51.378;0.018;2023-03-11T07:31:16;6.03;;;2.15;;
26060;SDS011;36331;51.378;0.018;2023-03-11T07:33:46;5.05;;;2.88;;
26060;SDS011;36331;51.378;0.018;2023-03-11T07:36:16;10.40;;;3.72;;
26060;SDS011;36331;51.378;0.018;2023-03-11T07:38:53;5.65;;;2.40;;
26060;SDS011;36331;51.378;0.018;2023-03-11T07:41:24;4.18;;;3.20;;
26060;SDS011;36331;51.378;0.018;2023-03-11T07:43:54;5.85;;;2.63;;
26060;SDS011;36331;51.378;0.018;2023-03-11T07:46:28;3.72;;;2.53;;
26060;SDS011;36331;51.378;0.018;2023-03-11T07:48:57;4.75;;;2.50;;
26060;SDS011;36331;51.378;0.018;2023-03-11T07:51:27;5.07;;;2.55;;
26060;SDS011;36331;51.378;0.018;2023-03-11T07:53:58;4.78;;;2.95;;
26060;SDS011;36331;51.378;0.018;2023-03-11T07:56:28;6.93;;;2.75;;
26060;SDS011;36331;51.378;0.018;2023-03-11T07:58:58;6.00;;;2.50;;
26060;SDS011;36331;51.378;0.018;2023-03-11T08:01:28;4.03;;;2.67;;
26060;SDS011;36331;51.378;0.018;2023-03-11T08:04:02;6.25;;;2.42;;
26060;SDS011;36331;51.378;0.018;2023-03-11T08:06:32;3.45;;;2.00;;
26060;SDS011;36331;51.378;0.018;2023-03-11T08:09:03;6.80;;;2.38;;
26060;SDS011;36331;51.378;0.018;2023-03-11T08:14:02;6.75;;;3.00;;
26060;SDS011;36331;51.378;0.018;2023-03-11T08:16:31;3.75;;;2.40;;
26060;SDS011;36331;51.378;0.018;2023-03-11T08:19:00;6.13;;;2.70;;
26060;SDS011;36331;51.378;0.018;2023-03-11T08:21:29;3.65;;;2.50;;
26060;SDS011;36331;51.378;0.018;2023-03-11T08:23:59;4.15;;;2.75;;
26060;SDS011;36331;51.378;0.018;2023-03-11T08:26:33;4.95;;;2.78;;
26060;SDS011;36331;51.378;0.018;2023-03-11T08:29:02;5.28;;;3.30;;
26060;SDS011;36331;51.378;0.018;2023-03-11T08:31:33;6.43;;;2.83;;
26060;SDS011;36331;51.378;0.018;2023-03-11T08:34:03;6.72;;;2.80;;
26060;SDS011;36331;51.378;0.018;2023-03-11T08:36:32;5.90;;;3.08;;
26060;SDS011;36331;51.378;0.018;2023-03-11T08:39:01;10.10;;;3.30;;
26060;SDS011;36331;51.378;0.018;2023-03-11T08:41:31;6.00;;;2.70;;
26060;SDS011;36331;51.378;0.018;2023-03-11T08:44:01;5.68;;;2.30;;
26060;SDS011;36331;51.378;0.018;2023-03-11T08:46:32;3.83;;;1.97;;
26060;SDS011;36331;51.378;0.018;2023-03-11T08:49:01;5.72;;;2.35;;
26060;SDS011;36331;51.378;0.018;2023-03-11T08:51:31;6.15;;;3.20;;
26060;SDS011;36331;51.378;0.018;2023-03-11T08:54:01;5.55;;;2.75;;
26060;SDS011;36331;51.378;0.018;2023-03-11T08:56:30;7.00;;;3.05;;
26060;SDS011;36331;51.378;0.018;2023-03-11T08:58:59;4.80;;;2.33;;
26060;SDS011;36331;51.378;0.018;2023-03-11T09:01:29;5.20;;;2.00;;
26060;SDS011;36331;51.378;0.018;2023-03-11T09:03:58;4.63;;;2.80;;
26060;SDS011;36331;51.378;0.018;2023-03-11T09:06:27;2.90;;;1.33;;
26060;SDS011;36331;51.378;0.018;2023-03-11T09:08:56;4.63;;;2.08;;
26060;SDS011;36331;51.378;0.018;2023-03-11T09:11:25;3.40;;;1.92;;
26060;SDS011;36331;51.378;0.018;2023-03-11T09:13:54;8.07;;;2.10;;
26060;SDS011;36331;51.378;0.018;2023-03-11T09:16:23;10.25;;;2.47;;
26060;SDS011;36331;51.378;0.018;2023-03-11T09:18:54;4.38;;;1.88;;
26060;SDS011;36331;51.378;0.018;2023-03-11T09:21:26;4.10;;;1.50;;
26060;SDS011;36331;51.378;0.018;2023-03-11T09:23:55;5.95;;;2.33;;
26060;SDS011;36331;51.378;0.018;2023-03-11T09:26:24;9.60;;;2.70;;
26060;SDS011;36331;51.378;0.018;2023-03-11T09:28:53;6.38;;;1.27;;
26060;SDS011;36331;51.378;0.018;2023-03-11T09:31:22;2.30;;;0.73;;
26060;SDS011;36331;51.378;0.018;2023-03-11T09:33:51;2.20;;;0.73;;
26060;SDS011;36331;51.378;0.018;2023-03-11T09:36:23;3.85;;;0.88;;
26060;SDS011;36331;51.378;0.018;2023-03-11T09:38:52;2.78;;;1.38;;
26060;SDS011;36331;51.378;0.018;2023-03-11T09:41:25;3.13;;;1.17;;
26060;SDS011;36331;51.378;0.018;2023-03-11T09:43:58;1.70;;;1.08;;
26060;SDS011;36331;51.378;0.018;2023-03-11T09:46:36;3.85;;;0.88;;
26060;SDS011;36331;51.378;0.018;2023-03-11T09:49:13;6.40;;;1.00;;
26060;SDS011;36331;51.378;0.018;2023-03-11T09:51:46;3.42;;;0.82;;
26060;SDS011;36331;51.378;0.018;2023-03-11T09:54:20;11.68;;;1.08;;
26060;SDS011;36331;51.378;0.018;2023-03-11T09:56:50;9.77;;;0.95;;
26060;SDS011;36331;51.378;0.018;2023-03-11T09:59:21;1.42;;;0.73;;
26060;SDS011;36331;51.378;0.018;2023-03-11T10:01:51;3.45;;;1.17;;
26060;SDS011;36331;51.378;0.018;2023-03-11T10:04:20;4.57;;;0.80;;
26060;SDS011;36331;51.378;0.018;2023-03-11T10:06:54;6.70;;;1.00;;
26060;SDS011;36331;51.378;0.018;2023-03-11T10:09:25;2.88;;;0.77;;
26060;SDS011;36331;51.378;0.018;2023-03-11T10:12:00;2.55;;;0.70;;
26060;SDS011;36331;51.378;0.018;2023-03-11T10:14:34;2.50;;;0.77;;
26060;SDS011;36331;51.378;0.018;2023-03-11T10:17:12;1.50;;;0.80;;
26060;SDS011;36331;51.378;0.018;2023-03-11T10:19:43;3.88;;;1.02;;
26060;SDS011;36331;51.378;0.018;2023-03-11T10:22:18;4.38;;;1.10;;
26060;SDS011;36331;51.378;0.018;2023-03-11T10:24:51;1.88;;;0.70;;
26060;SDS011;36331;51.378;0.018;2023-03-11T10:27:26;3.13;;;1.10;;
26060;SDS011;36331;51.378;0.018;2023-03-11T10:29:59;3.00;;;1.10;;
26060;SDS011;36331;51.378;0.018;2023-03-11T10:32:33;4.75;;;0.98;;
26060;SDS011;36331;51.378;0.018;2023-03-11T10:35:05;2.05;;;0.90;;
26060;SDS011;36331;51.378;0.018;2023-03-11T10:37:38;4.55;;;1.63;;
26060;SDS011;36331;51.378;0.018;2023-03-11T10:40:21;4.75;;;0.85;;
26060;SDS011;36331;51.378;0.018;2023-03-11T10:42:52;4.53;;;0.95;;
26060;SDS011;36331;51.378;0.018;2023-03-11T10:45:21;2.35;;;1.17;;
26060;SDS011;36331;51.378;0.018;2023-03-11T10:47:51;2.38;;;1.15;;
26060;SDS011;36331;51.378;0.018;2023-03-11T10:50:20;3.28;;;0.85;;
26060;SDS011;36331;51.378;0.018;2023-03-11T10:53:07;2.80;;;0.93;;
26060;SDS011;36331;51.378;0.018;2023-03-11T10:55:43;6.25;;;0.68;;
26060;SDS011;36331;51.378;0.018;2023-03-11T10:58:13;3.85;;;1.00;;
26060;SDS011;36331;51.378;0.018;2023-03-11T11:00:43;6.70;;;1.25;;
26060;SDS011;36331;51.378;0.018;2023-03-11T11:03:17;1.38;;;0.80;;
26060;SDS011;36331;51.378;0.018;2023-03-11T11:05:56;3.47;;;0.95;;
26060;SDS011;36331;51.378;0.018;2023-03-11T11:08:28;5.38;;;1.63;;
26060;SDS011;36331;51.378;0.018;2023-03-11T11:10:57;7.13;;;1.15;;
26060;SDS011;36331;51.378;0.018;2023-03-11T11:13:27;2.72;;;0.77;;
26060;SDS011;36331;51.378;0.018;2023-03-11T11:15:58;5.07;;;1.17;;
26060;SDS011;36331;51.378;0.018;2023-03-11T11:18:28;3.45;;;1.63;;
26060;SDS011;36331;51.378;0.018;2023-03-11T11:21:05;2.97;;;1.20;;
26060;SDS011;36331;51.378;0.018;2023-03-11T11:23:37;2.53;;;1.02;;
26060;SDS011;36331;51.378;0.018;2023-03-11T11:26:13;9.50;;;1.50;;
26060;SDS011;36331;51.378;0.018;2023-03-11T11:28:44;4.53;;;0.70;;
26060;SDS011;36331;51.378;0.018;2023-03-11T11:31:21;3.53;;;1.50;;
26060;SDS011;36331;51.378;0.018;2023-03-11T11:33:51;6.35;;;1.30;;
26060;SDS011;36331;51.378;0.018;2023-03-11T11:36:22;8.23;;;2.40;;
26060;SDS011;36331;51.378;0.018;2023-03-11T11:38:55;4.30;;;1.98;;
26060;SDS011;36331;51.378;0.018;2023-03-11T11:41:25;4.95;;;1.30;;
26060;SDS011;36331;51.378;0.018;2023-03-11T11:43:55;2.95;;;1.00;;
26060;SDS011;36331;51.378;0.018;2023-03-11T11:46:29;6.50;;;1.45;;
26060;SDS011;36331;51.378;0.018;2023-03-11T11:49:05;7.80;;;2.03;;
26060;SDS011;36331;51.378;0.018;2023-03-11T11:51:37;3.63;;;0.98;;
26060;SDS011;36331;51.378;0.018;2023-03-11T11:54:13;3.78;;;1.50;;
26060;SDS011;36331;51.378;0.018;2023-03-11T11:56:43;3.55;;;1.00;;
26060;SDS011;36331;51.378;0.018;2023-03-11T11:59:14;2.45;;;1.10;;
26060;SDS011;36331;51.378;0.018;2023-03-11T12:01:47;5.05;;;1.80;;
26060;SDS011;36331;51.378;0.018;2023-03-11T12:04:29;4.00;;;1.40;;
26060;SDS011;36331;51.378;0.018;2023-03-11T12:07:03;4.70;;;2.25;;
26060;SDS011;36331;51.378;0.018;2023-03-11T12:09:37;2.67;;;0.88;;
26060;SDS011;36331;51.378;0.018;2023-03-11T12:12:12;4.50;;;0.95;;
26060;SDS011;36331;51.378;0.018;2023-03-11T12:14:47;1.65;;;0.50;;
26060;SDS011;36331;51.378;0.018;2023-03-11T12:17:17;2.55;;;0.80;;
26060;SDS011;36331;51.378;0.018;2023-03-11T12:19:48;6.80;;;1.35;;
26060;SDS011;36331;51.378;0.018;2023-03-11T12:22:31;3.38;;;1.08;;
26060;SDS011;36331;51.378;0.018;2023-03-11T12:25:10;6.95;;;1.30;;
26060;SDS011;36331;51.378;0.018;2023-03-11T12:27:48;3.60;;;0.85;;
26060;SDS011;36331;51.378;0.018;2023-03-11T12:30:21;4.40;;;1.15;;
26060;SDS011;36331;51.378;0.018;2023-03-11T12:32:54;2.60;;;0.80;;
26060;SDS011;36331;51.378;0.018;2023-03-11T12:35:24;10.23;;;2.80;;
26060;SDS011;36331;51.378;0.018;2023-03-11T12:37:54;2.47;;;1.10;;
26060;SDS011;36331;51.378;0.018;2023-03-11T12:43:27;6.53;;;2.25;;
26060;SDS011;36331;51.378;0.018;2023-03-11T12:46:16;5.78;;;1.38;;
26060;SDS011;36331;51.378;0.018;2023-03-11T12:48:45;4.78;;;1.10;;
26060;SDS011;36331;51.378;0.018;2023-03-11T12:54:21;2.08;;;1.10;;
26060;SDS011;36331;51.378;0.018;2023-03-11T12:56:56;7.10;;;1.73;;
26060;SDS011;36331;51.378;0.018;2023-03-11T12:59:51;4.57;;;1.15;;
26060;SDS011;36331;51.378;0.018;2023-03-11T13:02:23;2.63;;;0.93;;
26060;SDS011;36331;51.378;0.018;2023-03-11T13:04:56;3.47;;;0.57;;
26060;SDS011;36331;51.378;0.018;2023-03-11T13:07:35;4.85;;;1.42;;
26060;SDS011;36331;51.378;0.018;2023-03-11T13:10:14;3.80;;;1.20;;
26060;SDS011;36331;51.378;0.018;2023-03-11T13:12:45;10.55;;;3.50;;
26060;SDS011;36331;51.378;0.018;2023-03-11T13:15:25;10.30;;;3.78;;
26060;SDS011;36331;51.378;0.018;2023-03-11T13:17:58;1.52;;;1.10;;
26060;SDS011;36331;51.378;0.018;2023-03-11T13:23:31;6.40;;;1.38;;
26060;SDS011;36331;51.378;0.018;2023-03-11T13:26:12;2.37;;;0.80;;
26060;SDS011;36331;51.378;0.018;2023-03-11T13:28:49;2.25;;;1.02;;
26060;SDS011;36331;51.378;0.018;2023-03-11T13:31:31;2.50;;;0.80;;
26060;SDS011;36331;51.378;0.018;2023-03-11T13:34:10;2.47;;;0.50;;
26060;SDS011;36331;51.378;0.018;2023-03-11T13:36:50;5.88;;;0.90;;
26060;SDS011;36331;51.378;0.018;2023-03-11T13:39:36;1.25;;;0.60;;
26060;SDS011;36331;51.378;0.018;2023-03-11T13:42:12;2.83;;;0.55;;
26060;SDS011;36331;51.378;0.018;2023-03-11T13:44:42;1.70;;;0.55;;
26060;SDS011;36331;51.378;0.018;2023-03-11T13:47:15;1.17;;;0.75;;
26060;SDS011;36331;51.378;0.018;2023-03-11T13:49:45;4.25;;;0.90;;
26060;SDS011;36331;51.378;0.018;2023-03-11T13:52:17;1.30;;;1.20;;
26060;SDS011;36331;51.378;0.018;2023-03-11T13:54:48;4.18;;;1.65;;
26060;SDS011;36331;51.378;0.018;2023-03-11T13:57:24;2.20;;;0.90;;
26060;SDS011;36331;51.378;0.018;2023-03-11T13:59:55;3.58;;;0.80;;
26060;SDS011;36331;51.378;0.018;2023-03-11T14:02:26;4.93;;;1.05;;
26060;SDS011;36331;51.378;0.018;2023-03-11T14:04:57;2.25;;;0.60;;
26060;SDS011;36331;51.378;0.018;2023-03-11T14:07:27;2.13;;;0.50;;
26060;SDS011;36331;51.378;0.018;2023-03-11T14:12:44;2.78;;;0.80;;
26060;SDS011;36331;51.378;0.018;2023-03-11T14:15:14;1.13;;;0.47;;
26060;SDS011;36331;51.378;0.018;2023-03-11T14:17:45;3.58;;;0.95;;
26060;SDS011;36331;51.378;0.018;2023-03-11T14:20:15;1.77;;;0.55;;
26060;SDS011;36331;51.378;0.018;2023-03-11T14:22:46;1.90;;;0.98;;
26060;SDS011;36331;51.378;0.018;2023-03-11T14:25:17;5.85;;;1.02;;
26060;SDS011;36331;51.378;0.018;2023-03-11T14:27:48;2.10;;;0.73;;
26060;SDS011;36331;51.378;0.018;2023-03-11T14:30:19;2.45;;;0.80;;
26060;SDS011;36331;51.378;0.018;2023-03-11T14:32:57;3.33;;;0.75;;
26060;SDS011;36331;51.378;0.018;2023-03-11T14:35:26;3.85;;;0.77;;
26060;SDS011;36331;51.378;0.018;2023-03-11T14:37:56;4.03;;;1.15;;
26060;SDS011;36331;51.378;0.018;2023-03-11T14:40:26;6.07;;;1.00;;
26060;SDS011;36331;51.378;0.018;2023-03-11T14:42:57;3.35;;;1.00;;
26060;SDS011;36331;51.378;0.018;2023-03-11T14:45:27;3.42;;;0.85;;
26060;SDS011;36331;51.378;0.018;2023-03-11T14:47:59;1.70;;;0.47;;
26060;SDS011;36331;51.378;0.018;2023-03-11T14:50:31;3.63;;;1.25;;
26060;SDS011;36331;51.378;0.018;2023-03-11T14:53:01;2.30;;;1.00;;
26060;SDS011;36331;51.378;0.018;2023-03-11T14:55:32;3.65;;;1.13;;
26060;SDS011;36331;51.378;0.018;2023-03-11T14:58:02;1.58;;;0.50;;
26060;SDS011;36331;51.378;0.018;2023-03-11T15:00:32;2.38;;;0.50;;
26060;SDS011;36331;51.378;0.018;2023-03-11T15:03:10;1.75;;;0.50;;
26060;SDS011;36331;51.378;0.018;2023-03-11T15:05:43;1.90;;;0.60;;
26060;SDS011;36331;51.378;0.018;2023-03-11T15:08:16;2.78;;;0.85;;
26060;SDS011;36331;51.378;0.018;2023-03-11T15:11:02;2.30;;;0.80;;
26060;SDS011;36331;51.378;0.018;2023-03-11T15:13:33;4.28;;;1.48;;
26060;SDS011;36331;51.378;0.018;2023-03-11T15:16:03;1.35;;;0.73;;
26060;SDS011;36331;51.378;0.018;2023-03-11T15:18:35;2.78;;;0.90;;
26060;SDS011;36331;51.378;0.018;2023-03-11T15:21:06;4.35;;;1.67;;
26060;SDS011;36331;51.378;0.018;2023-03-11T15:23:43;1.42;;;0.50;;
26060;SDS011;36331;51.378;0.018;2023-03-11T15:26:16;1.75;;;0.60;;
26060;SDS011;36331;51.378;0.018;2023-03-11T15:28:45;2.55;;;0.75;;
26060;SDS011;36331;51.378;0.018;2023-03-11T15:31:27;2.63;;;1.40;;
26060;SDS011;36331;51.378;0.018;2023-03-11T15:34:20;6.15;;;0.88;;
26060;SDS011;36331;51.378;0.018;2023-03-11T15:36:59;2.63;;;1.10;;